KSTK/STK METAR and TAF weather

Enter ICAO airport designator
Station Type Date Time Source
KSTK METAR 2019/06/19 00:40 UTC NOAA

KSTK 190040Z AUTO 23005KT 10SM -RA SCT031 SCT060 OVC080 17/15 A2995 RMK AO2 P0001 LTG DSNT NE


Station Type Date Time Source
KSTK Decoded METAR 2019/06/19 00:40 UTC NOAA

Station name not available
Jun 18, 2019 - 08:40 PM EDT / 2019.06.19 0040 UTC
Wind: from the SW (230 degrees) at 6 MPH (5 KT):0
Visibility: 10 mile(s):0
Sky conditions: overcast
Weather: light rain; Lightning observed
Precipitation last hour: 0.01 inches
Temperature: 62 F (17 C)
Dew Point: 59 F (15 C)
Relative Humidity: 88%
Pressure (altimeter): 29.95 in. Hg (1014 hPa)
ob: KSTK 190040Z AUTO 23005KT 10SM -RA SCT031 SCT060 OVC080 17/15 A2995 RMK AO2 P0001 LTG DSNT NE
cycle: 0

Station Type Date Time Source
KSTK TAF UTC NOAA

Error!

Example: see airport list